Observations

79.5 °F / 26.4 °C
Calm
91%
76.8°F / 24.9 °C
29.83" (1010 mb)
10 mile(s)
partly cloudy
2018.06.24 1820 UTC

Observations

Surface


Raw METARs

2018/06/24 18:20
PKWA 241820Z AUTO 00000KT 10SM SCT017 26/25 A2983 RMK AO2 T02640249

Translated METAR

Kwajalein, Bucholz AAF, Kwajalein KMR ATOL Airport, Marshall Islands (PKWA) 08-43N 167-44E 2M
Jun 24, 2018 - 02:20 PM EDT / 2018.06.24 1820 UTC
Wind: Calm:0
Visibility: 10 mile(s):0
Sky conditions: partly cloudy
Temperature: 79.5 F (26.4 C)
Dew Point: 76.8 F (24.9 C)
Relative Humidity: 91%
Pressure (altimeter): 29.83 in. Hg (1010 hPa)
ob: PKWA 241820Z AUTO 00000KT 10SM SCT017 26/25 A2983 RMK AO2 T02640249
cycle: 18



Upper Air


Latest Skew-T

Skew T Diagram

Latest Data File